Time;durP1;ratioP1;P1;durP2;ratioP2;P2;SDS_P1;SDS_P2;PMS_P1;PMS_P2;Temp;Humidity;BMP_temperature;BMP_pressure;BME280_temperature;BME280_humidity;BME280_pressure;Samples;Min_cycle;Max_cycle;Signal;HPM_P1;HPM_P2
2022/01/31 06:48:41;;;;;;;5.85;1.85;;;;;;;;;;10591541;27;20499;-85
2022/01/31 06:53:49;;;;;;;8.32;2.45;;;;;;;;;;10634348;27;20042;-85
2022/01/31 06:58:59;;;;;;;5.88;1.90;;;;;;;;;;10654711;27;20540;-85
2022/01/31 07:04:00;;;;;;;6.97;1.83;;;;;;;;;;10654802;27;20015;-86
2022/01/31 08:05:36;;;;;;;3.28;1.63;;;;;;;;;;10646132;27;19910;-83
2022/01/31 08:10:38;;;;;;;3.63;1.38;;;;;;;;;;10631515;27;20023;-85
2022/01/31 08:16:00;;;;;;;4.07;1.33;;;;;;;;;;10625663;27;20027;-84
2022/01/31 08:21:05;;;;;;;8.10;1.90;;;;;;;;;;10624399;27;20530;-84
2022/01/31 08:26:08;;;;;;;5.07;1.60;;;;;;;;;;10638730;27;20027;-84
2022/01/31 08:36:13;;;;;;;4.78;2.13;;;;;;;;;;10637126;27;20104;-82
2022/01/31 08:41:14;;;;;;;;;;;;;;;;;;10623505;27;20164;-83
2022/01/31 08:46:15;;;;;;;3.88;1.73;;;;;;;;;;10621439;27;20317;-83
2022/01/31 08:51:17;;;;;;;;;;;;;;;;;;10635867;27;20019;-83
2022/01/31 08:56:18;;;;;;;4.93;1.45;;;;;;;;;;10636901;27;20479;-83
2022/01/31 09:01:22;;;;;;;4.47;1.98;;;;;;;;;;10636635;27;20027;-83
2022/01/31 09:06:24;;;;;;;6.40;2.10;;;;;;;;;;10617951;27;20118;-84
2022/01/31 09:11:25;;;;;;;5.22;1.80;;;;;;;;;;10623539;27;20031;-84
2022/01/31 09:16:26;;;;;;;;;;;;;;;;;;10636452;27;20023;-84
2022/01/31 09:21:28;;;;;;;6.03;2.63;;;;;;;;;;10635045;27;19903;-83
2022/01/31 09:26:29;;;;;;;;;;;;;;;;;;10615742;27;20046;-83
2022/01/31 09:31:30;;;;;;;3.17;1.33;;;;;;;;;;10616510;27;19914;-82
2022/01/31 09:36:31;;;;;;;4.35;1.50;;;;;;;;;;10619793;27;20027;-84
2022/01/31 09:41:34;;;;;;;6.65;1.52;;;;;;;;;;10624098;27;20027;-82
2022/01/31 09:51:52;;;;;;;5.47;1.83;;;;;;;;;;10638026;27;20031;-83
2022/01/31 09:56:53;;;;;;;5.35;1.58;;;;;;;;;;10587892;22;20048;-83
2022/01/31 10:01:57;;;;;;;4.88;2.08;;;;;;;;;;10556767;28;20130;-83
2022/01/31 10:06:58;;;;;;;4.53;1.70;;;;;;;;;;10528587;28;20039;-81
2022/01/31 10:12:10;;;;;;;4.63;1.48;;;;;;;;;;10509004;28;20031;-82
2022/01/31 10:17:21;;;;;;;5.55;2.00;;;;;;;;;;10508062;28;20096;-81
2022/01/31 10:22:24;;;;;;;4.53;2.47;;;;;;;;;;10508939;28;20028;-81
2022/01/31 10:27:28;;;;;;;6.32;1.90;;;;;;;;;;10507647;28;20119;-81
2022/01/31 10:32:33;;;;;;;3.22;1.23;;;;;;;;;;10506502;28;20119;-81
2022/01/31 10:37:36;;;;;;;4.28;1.55;;;;;;;;;;10506777;28;20021;-80
2022/01/31 10:53:56;;;;;;;19.92;11.23;;;;;;;;;;10508443;28;20032;-80
2022/01/31 10:58:57;;;;;;;;;;;;;;;;;;10516338;28;20085;-80
2022/01/31 11:04:03;;;;;;;6.70;2.40;;;;;;;;;;10523516;28;20011;-80
2022/01/31 11:09:07;;;;;;;3.17;1.20;;;;;;;;;;10538026;28;20490;-80
2022/01/31 11:14:10;;;;;;;4.60;2.03;;;;;;;;;;10530360;28;20048;-81
2022/01/31 11:19:11;;;;;;;3.97;1.60;;;;;;;;;;10549049;28;20024;-81
2022/01/31 11:24:27;;;;;;;4.30;2.22;;;;;;;;;;10531246;28;20040;-81
2022/01/31 11:29:28;;;;;;;6.25;1.83;;;;;;;;;;10530604;28;20020;-79
2022/01/31 11:34:29;;;;;;;;;;;;;;;;;;10535121;28;20043;-79
2022/01/31 11:39:30;;;;;;;5.72;1.40;;;;;;;;;;10534800;28;19904;-79
2022/01/31 11:44:34;;;;;;;2.97;1.10;;;;;;;;;;10553353;28;20028;-79
2022/01/31 11:49:44;;;;;;;4.93;2.35;;;;;;;;;;10535024;28;20054;-80
2022/01/31 11:54:51;;;;;;;4.40;2.10;;;;;;;;;;10534038;28;20397;-79
2022/01/31 11:59:54;;;;;;;4.15;1.08;;;;;;;;;;10533512;28;20031;-80
2022/01/31 12:04:59;;;;;;;4.40;1.60;;;;;;;;;;10533717;28;20034;-79
2022/01/31 12:10:01;;;;;;;4.43;1.70;;;;;;;;;;10534802;28;20024;-79
2022/01/31 12:15:34;;;;;;;4.68;1.70;;;;;;;;;;10533722;28;20065;-79
2022/01/31 12:26:28;;;;;;;4.97;1.52;;;;;;;;;;10560200;28;20052;-79
2022/01/31 12:31:35;;;;;;;4.50;1.85;;;;;;;;;;10542570;28;20035;-79
2022/01/31 12:36:36;;;;;;;5.80;2.13;;;;;;;;;;10559484;28;20039;-79
2022/01/31 12:41:38;;;;;;;17.58;9.00;;;;;;;;;;10548807;28;20039;-79
2022/01/31 12:46:48;;;;;;;4.43;1.90;;;;;;;;;;10544834;28;20038;-79
2022/01/31 12:51:57;;;;;;;5.82;1.75;;;;;;;;;;10542540;28;20485;-80
2022/01/31 12:57:10;;;;;;;3.22;1.70;;;;;;;;;;10562514;28;20113;-82
2022/01/31 13:02:11;;;;;;;4.60;1.50;;;;;;;;;;10543954;28;20053;-82
2022/01/31 13:07:12;;;;;;;;;;;;;;;;;;10540310;28;20035;-81
2022/01/31 13:12:16;;;;;;;8.48;2.72;;;;;;;;;;10543698;28;19915;-82
2022/01/31 13:17:19;;;;;;;2.80;1.40;;;;;;;;;;10545462;28;20092;-82
2022/01/31 13:22:26;;;;;;;3.50;1.30;;;;;;;;;;10550921;28;20031;-81
2022/01/31 13:27:32;;;;;;;3.33;1.55;;;;;;;;;;10539714;28;20114;-82
2022/01/31 13:32:34;;;;;;;3.97;1.17;;;;;;;;;;10538393;28;20123;-82
2022/01/31 13:37:37;;;;;;;5.97;1.80;;;;;;;;;;10539477;28;20024;-81
2022/01/31 13:42:40;;;;;;;3.67;1.83;;;;;;;;;;10539718;28;20488;-81
2022/01/31 13:52:56;;;;;;;2.50;1.48;;;;;;;;;;10556691;28;20034;-82
2022/01/31 13:57:58;;;;;;;2.30;1.02;;;;;;;;;;10553439;28;20417;-80
2022/01/31 14:03:03;;;;;;;2.80;1.27;;;;;;;;;;10549266;28;20050;-79
2022/01/31 14:08:04;;;;;;;5.68;2.13;;;;;;;;;;10552820;28;20028;-81
2022/01/31 14:13:11;;;;;;;3.38;1.58;;;;;;;;;;10548482;28;20393;-80
2022/01/31 14:18:16;;;;;;;3.35;1.40;;;;;;;;;;10549295;28;20497;-80
2022/01/31 14:23:17;;;;;;;4.65;1.80;;;;;;;;;;10550140;28;20051;-80
2022/01/31 14:28:18;;;;;;;3.33;1.63;;;;;;;;;;10567207;28;20039;-80
2022/01/31 14:33:24;;;;;;;3.58;1.13;;;;;;;;;;10549665;28;20049;-81
2022/01/31 14:38:29;;;;;;;4.78;1.30;;;;;;;;;;10550405;28;20107;-83
2022/01/31 14:47:16;;;;;;;3.00;1.20;;;;;;;;;;10547220;28;20028;-78
2022/01/31 14:49:05;;;;;;;4.67;1.73;;;;;;;;;;10546861;28;20024;-81
2022/01/31 14:54:10;;;;;;;4.82;1.35;;;;;;;;;;10563614;22;20043;-81
2022/01/31 14:59:17;;;;;;;4.32;1.58;;;;;;;;;;10558364;28;20027;-81
2022/01/31 15:04:22;;;;;;;4.22;1.52;;;;;;;;;;10539591;28;20036;-82
2022/01/31 15:09:23;;;;;;;7.65;2.22;;;;;;;;;;10561665;28;20039;-80
2022/01/31 15:14:24;;;;;;;5.00;1.90;;;;;;;;;;10543718;28;20095;-80
2022/01/31 15:19:34;;;;;;;3.17;1.65;;;;;;;;;;10562948;28;20024;-80
2022/01/31 15:30:06;;;;;;;5.13;1.60;;;;;;;;;;10560580;28;20042;-81
2022/01/31 17:06:39;;;;;;;5.20;1.60;;;;;;;;;;10551403;22;20079;-82
2022/01/31 17:11:40;;;;;;;4.90;1.60;;;;;;;;;;10502350;28;20043;-82
2022/01/31 17:16:40;;;;;;;;;;;;;;;;;;10501214;28;20042;-81
2022/01/31 17:21:44;;;;;;;6.65;2.00;;;;;;;;;;10505199;28;19972;-82
2022/01/31 17:26:45;;;;;;;6.38;1.60;;;;;;;;;;10527604;28;20033;-82
2022/01/31 17:31:46;;;;;;;6.40;1.42;;;;;;;;;;10519432;28;20092;-88
2022/01/31 17:36:50;;;;;;;4.63;1.80;;;;;;;;;;10514528;28;20043;-86
2022/01/31 17:41:59;;;;;;;8.43;2.85;;;;;;;;;;10533229;28;20028;-85
2022/01/31 17:47:00;;;;;;;4.57;1.40;;;;;;;;;;10533628;28;20097;-85
2022/01/31 17:52:01;;;;;;;4.60;1.33;;;;;;;;;;10533485;28;20028;-85
2022/01/31 17:57:02;;;;;;;;;;;;;;;;;;10530823;28;20049;-87
2022/01/31 18:02:04;;;;;;;3.30;1.10;;;;;;;;;;10518553;28;19905;-87
2022/01/31 18:07:05;;;;;;;3.92;1.20;;;;;;;;;;10506451;28;20271;-87
2022/01/31 18:12:09;;;;;;;4.70;1.30;;;;;;;;;;10504140;28;20032;-87
2022/01/31 18:17:12;;;;;;;3.47;1.23;;;;;;;;;;10515952;28;20048;-84
2022/01/31 18:22:13;;;;;;;2.45;0.80;;;;;;;;;;10521176;28;20056;-87
2022/01/31 18:27:14;;;;;;;4.43;1.20;;;;;;;;;;10501874;28;20044;-88
2022/01/31 18:32:15;;;;;;;6.13;2.58;;;;;;;;;;10501812;28;20035;-86
2022/01/31 18:37:16;;;;;;;;;;;;;;;;;;10501501;28;20029;-87
2022/01/31 18:42:17;;;;;;;5.78;2.42;;;;;;;;;;10501969;28;19904;-87
2022/01/31 18:47:21;;;;;;;7.38;4.85;;;;;;;;;;10499868;28;20556;-87
2022/01/31 18:52:23;;;;;;;6.50;2.75;;;;;;;;;;10500831;28;20042;-87
2022/01/31 18:57:24;;;;;;;4.57;2.40;;;;;;;;;;10500175;28;20042;-88
2022/01/31 19:02:25;;;;;;;5.97;2.25;;;;;;;;;;10502053;28;20056;-87
2022/01/31 19:07:26;;;;;;;5.13;3.55;;;;;;;;;;10519925;28;20047;-86
2022/01/31 19:12:42;;;;;;;3.10;2.22;;;;;;;;;;10502037;28;20083;-86
2022/01/31 19:17:43;;;;;;;4.57;3.30;;;;;;;;;;10500016;28;20100;-86
2022/01/31 19:22:44;;;;;;;4.45;2.63;;;;;;;;;;10501119;28;20032;-86
2022/01/31 19:27:45;;;;;;;6.18;3.47;;;;;;;;;;10513747;28;20037;-86
2022/01/31 19:32:47;;;;;;;5.43;2.80;;;;;;;;;;10511080;28;20032;-87
2022/01/31 19:37:49;;;;;;;4.82;2.40;;;;;;;;;;10500674;28;20028;-87
2022/01/31 19:48:10;;;;;;;6.03;4.63;;;;;;;;;;10520702;28;20040;-86
2022/01/31 19:53:11;;;;;;;5.55;2.00;;;;;;;;;;10504227;28;20040;-86
2022/01/31 19:58:12;;;;;;;10.73;8.10;;;;;;;;;;10506211;28;20051;-87
2022/01/31 20:03:13;;;;;;;9.25;6.47;;;;;;;;;;10503188;28;20410;-87
2022/01/31 20:08:14;;;;;;;9.68;8.00;;;;;;;;;;10506849;28;20047;-87
2022/01/31 20:13:16;;;;;;;10.48;7.50;;;;;;;;;;10505681;28;20040;-87
2022/01/31 20:18:17;;;;;;;9.38;6.90;;;;;;;;;;10508635;28;20395;-87
2022/01/31 20:23:21;;;;;;;6.65;4.95;;;;;;;;;;10502156;28;20115;-87
2022/01/31 20:28:23;;;;;;;3.38;1.40;;;;;;;;;;10518623;28;20028;-84
2022/01/31 20:33:25;;;;;;;8.70;4.72;;;;;;;;;;10511031;28;20096;-87
2022/01/31 20:38:31;;;;;;;10.98;8.40;;;;;;;;;;10505662;28;20028;-87
2022/01/31 20:43:34;;;;;;;14.68;10.07;;;;;;;;;;10505321;28;20041;-87
2022/01/31 20:48:35;;;;;;;14.18;8.95;;;;;;;;;;10505010;28;20040;-87
2022/01/31 20:53:36;;;;;;;9.48;3.88;;;;;;;;;;10522239;28;20036;-87
2022/01/31 20:58:37;;;;;;;16.83;10.40;;;;;;;;;;10505602;28;20062;-86
2022/01/31 21:03:38;;;;;;;17.50;13.07;;;;;;;;;;10502406;28;20115;-87
2022/01/31 21:08:45;;;;;;;12.35;6.75;;;;;;;;;;10504386;28;20104;-86
